sensor_id;sensor_type;location;lat;lon;timestamp;temperature;humidity
2523;DHT22;1272;53.332;9.860;2023-07-13T00:01:38;16.60;99.90
2523;DHT22;1272;53.332;9.860;2023-07-13T00:04:04;16.50;99.90
2523;DHT22;1272;53.332;9.860;2023-07-13T00:06:29;16.50;99.90
2523;DHT22;1272;53.332;9.860;2023-07-13T00:08:59;16.40;99.90
2523;DHT22;1272;53.332;9.860;2023-07-13T00:11:25;16.40;99.90
2523;DHT22;1272;53.332;9.860;2023-07-13T00:13:51;16.30;99.90
2523;DHT22;1272;53.332;9.860;2023-07-13T00:16:17;16.30;99.90
2523;DHT22;1272;53.332;9.860;2023-07-13T00:18:44;16.30;99.90
2523;DHT22;1272;53.332;9.860;2023-07-13T00:21:10;16.20;99.90
2523;DHT22;1272;53.332;9.860;2023-07-13T00:23:38;16.20;99.90
2523;DHT22;1272;53.332;9.860;2023-07-13T00:26:05;16.10;99.90
2523;DHT22;1272;53.332;9.860;2023-07-13T00:28:32;16.10;99.90
2523;DHT22;1272;53.332;9.860;2023-07-13T00:30:58;16.10;99.90
2523;DHT22;1272;53.332;9.860;2023-07-13T00:33:24;16.00;99.90
2523;DHT22;1272;53.332;9.860;2023-07-13T00:35:50;15.90;99.90
2523;DHT22;1272;53.332;9.860;2023-07-13T00:38:16;15.90;99.90
2523;DHT22;1272;53.332;9.860;2023-07-13T00:40:42;15.90;99.90
2523;DHT22;1272;53.332;9.860;2023-07-13T00:43:15;15.90;99.90
2523;DHT22;1272;53.332;9.860;2023-07-13T00:48:11;15.80;99.90
2523;DHT22;1272;53.332;9.860;2023-07-13T00:50:39;15.80;99.90
2523;DHT22;1272;53.332;9.860;2023-07-13T00:53:06;15.70;99.90
2523;DHT22;1272;53.332;9.860;2023-07-13T00:55:32;15.70;99.90
2523;DHT22;1272;53.332;9.860;2023-07-13T00:57:58;15.70;99.90
2523;DHT22;1272;53.332;9.860;2023-07-13T01:00:25;15.70;99.90
2523;DHT22;1272;53.332;9.860;2023-07-13T01:02:52;15.60;99.90
2523;DHT22;1272;53.332;9.860;2023-07-13T01:05:19;15.60;99.90
2523;DHT22;1272;53.332;9.860;2023-07-13T01:07:48;15.50;99.90
2523;DHT22;1272;53.332;9.860;2023-07-13T01:10:14;15.50;99.90
2523;DHT22;1272;53.332;9.860;2023-07-13T01:12:40;15.40;99.90
2523;DHT22;1272;53.332;9.860;2023-07-13T01:18:09;15.40;99.90
2523;DHT22;1272;53.332;9.860;2023-07-13T01:20:36;15.40;99.90
2523;DHT22;1272;53.332;9.860;2023-07-13T01:23:07;15.30;99.90
2523;DHT22;1272;53.332;9.860;2023-07-13T01:25:35;15.30;99.90
2523;DHT22;1272;53.332;9.860;2023-07-13T01:28:02;15.20;99.90
2523;DHT22;1272;53.332;9.860;2023-07-13T01:30:27;15.20;99.90
2523;DHT22;1272;53.332;9.860;2023-07-13T01:32:53;15.20;99.90
2523;DHT22;1272;53.332;9.860;2023-07-13T01:35:19;15.20;99.90
2523;DHT22;1272;53.332;9.860;2023-07-13T01:37:44;15.20;99.90
2523;DHT22;1272;53.332;9.860;2023-07-13T01:40:11;15.10;99.90
2523;DHT22;1272;53.332;9.860;2023-07-13T01:42:37;15.10;99.90
2523;DHT22;1272;53.332;9.860;2023-07-13T01:45:03;15.10;99.90
2523;DHT22;1272;53.332;9.860;2023-07-13T01:47:29;15.10;99.90
2523;DHT22;1272;53.332;9.860;2023-07-13T01:49:56;15.20;99.90
2523;DHT22;1272;53.332;9.860;2023-07-13T01:52:22;15.20;99.90
2523;DHT22;1272;53.332;9.860;2023-07-13T01:54:48;15.30;99.90
2523;DHT22;1272;53.332;9.860;2023-07-13T01:57:13;15.30;99.90
2523;DHT22;1272;53.332;9.860;2023-07-13T01:59:39;15.30;99.90
2523;DHT22;1272;53.332;9.860;2023-07-13T02:02:05;15.30;99.90
2523;DHT22;1272;53.332;9.860;2023-07-13T02:04:30;15.30;99.90
2523;DHT22;1272;53.332;9.860;2023-07-13T02:06:56;15.40;99.90
2523;DHT22;1272;53.332;9.860;2023-07-13T02:09:22;15.30;99.90
2523;DHT22;1272;53.332;9.860;2023-07-13T02:11:47;15.30;99.90
2523;DHT22;1272;53.332;9.860;2023-07-13T02:14:14;15.30;99.90
2523;DHT22;1272;53.332;9.860;2023-07-13T02:16:40;15.30;99.90
2523;DHT22;1272;53.332;9.860;2023-07-13T02:19:07;15.30;99.90
2523;DHT22;1272;53.332;9.860;2023-07-13T02:21:33;15.30;99.90
2523;DHT22;1272;53.332;9.860;2023-07-13T02:23:59;15.20;99.90
2523;DHT22;1272;53.332;9.860;2023-07-13T02:26:25;15.20;99.90
2523;DHT22;1272;53.332;9.860;2023-07-13T02:28:51;15.20;99.90
2523;DHT22;1272;53.332;9.860;2023-07-13T02:31:17;15.20;99.90
2523;DHT22;1272;53.332;9.860;2023-07-13T02:33:43;15.20;99.90
2523;DHT22;1272;53.332;9.860;2023-07-13T02:36:09;15.20;99.90
2523;DHT22;1272;53.332;9.860;2023-07-13T02:38:35;15.20;99.90
2523;DHT22;1272;53.332;9.860;2023-07-13T02:41:05;15.20;99.90
2523;DHT22;1272;53.332;9.860;2023-07-13T02:43:32;15.20;99.90
2523;DHT22;1272;53.332;9.860;2023-07-13T02:45:59;15.20;99.90
2523;DHT22;1272;53.332;9.860;2023-07-13T02:48:29;15.20;99.90
2523;DHT22;1272;53.332;9.860;2023-07-13T02:50:55;15.20;99.90
2523;DHT22;1272;53.332;9.860;2023-07-13T02:53:21;15.20;99.90
2523;DHT22;1272;53.332;9.860;2023-07-13T02:55:47;15.10;99.90
2523;DHT22;1272;53.332;9.860;2023-07-13T02:58:13;15.10;99.90
2523;DHT22;1272;53.332;9.860;2023-07-13T03:00:46;15.10;99.90
2523;DHT22;1272;53.332;9.860;2023-07-13T03:03:13;15.00;99.90
2523;DHT22;1272;53.332;9.860;2023-07-13T03:05:41;15.00;99.90
2523;DHT22;1272;53.332;9.860;2023-07-13T03:08:08;15.00;99.90
2523;DHT22;1272;53.332;9.860;2023-07-13T03:10:34;14.90;99.90
2523;DHT22;1272;53.332;9.860;2023-07-13T03:13:00;14.90;99.90
2523;DHT22;1272;53.332;9.860;2023-07-13T03:15:26;14.90;99.90
2523;DHT22;1272;53.332;9.860;2023-07-13T03:17:52;14.90;99.90
2523;DHT22;1272;53.332;9.860;2023-07-13T03:20:18;14.80;99.90
2523;DHT22;1272;53.332;9.860;2023-07-13T03:22:45;14.80;99.90
2523;DHT22;1272;53.332;9.860;2023-07-13T03:25:11;14.80;99.90
2523;DHT22;1272;53.332;9.860;2023-07-13T03:27:37;14.80;99.90
2523;DHT22;1272;53.332;9.860;2023-07-13T03:30:04;14.80;99.90
2523;DHT22;1272;53.332;9.860;2023-07-13T03:32:30;14.80;99.90
2523;DHT22;1272;53.332;9.860;2023-07-13T03:34:56;14.80;99.90
2523;DHT22;1272;53.332;9.860;2023-07-13T03:37:22;14.80;99.90
2523;DHT22;1272;53.332;9.860;2023-07-13T03:39:47;14.80;99.90
2523;DHT22;1272;53.332;9.860;2023-07-13T03:42:14;14.80;99.90
2523;DHT22;1272;53.332;9.860;2023-07-13T03:44:40;14.70;99.90
2523;DHT22;1272;53.332;9.860;2023-07-13T03:47:06;14.70;99.90
2523;DHT22;1272;53.332;9.860;2023-07-13T03:49:34;14.70;99.90
2523;DHT22;1272;53.332;9.860;2023-07-13T03:52:00;14.70;99.90
2523;DHT22;1272;53.332;9.860;2023-07-13T03:54:26;14.80;99.90
2523;DHT22;1272;53.332;9.860;2023-07-13T03:56:52;14.80;99.90
2523;DHT22;1272;53.332;9.860;2023-07-13T03:59:17;14.90;99.90
2523;DHT22;1272;53.332;9.860;2023-07-13T04:01:44;14.90;99.90
2523;DHT22;1272;53.332;9.860;2023-07-13T04:04:10;15.00;99.90
2523;DHT22;1272;53.332;9.860;2023-07-13T04:06:36;15.00;99.90
2523;DHT22;1272;53.332;9.860;2023-07-13T04:09:03;15.00;99.90
2523;DHT22;1272;53.332;9.860;2023-07-13T04:11:31;15.00;99.90
2523;DHT22;1272;53.332;9.860;2023-07-13T04:13:58;15.10;99.90
2523;DHT22;1272;53.332;9.860;2023-07-13T04:16:24;15.10;99.90
2523;DHT22;1272;53.332;9.860;2023-07-13T04:18:51;15.20;99.90
2523;DHT22;1272;53.332;9.860;2023-07-13T04:21:20;15.20;99.90
2523;DHT22;1272;53.332;9.860;2023-07-13T04:23:46;15.20;99.90
2523;DHT22;1272;53.332;9.860;2023-07-13T04:26:12;15.20;99.90
2523;DHT22;1272;53.332;9.860;2023-07-13T04:28:38;15.30;99.90
2523;DHT22;1272;53.332;9.860;2023-07-13T04:31:04;15.30;99.90
2523;DHT22;1272;53.332;9.860;2023-07-13T04:33:30;15.30;99.90
2523;DHT22;1272;53.332;9.860;2023-07-13T04:35:56;15.30;99.90
2523;DHT22;1272;53.332;9.860;2023-07-13T04:38:28;15.30;99.90
2523;DHT22;1272;53.332;9.860;2023-07-13T04:40:59;15.30;99.90
2523;DHT22;1272;53.332;9.860;2023-07-13T04:43:26;15.30;99.90
2523;DHT22;1272;53.332;9.860;2023-07-13T04:45:52;15.40;99.90
2523;DHT22;1272;53.332;9.860;2023-07-13T04:48:18;15.40;99.90
2523;DHT22;1272;53.332;9.860;2023-07-13T04:50:45;15.40;99.90
2523;DHT22;1272;53.332;9.860;2023-07-13T04:53:11;15.40;99.90
2523;DHT22;1272;53.332;9.860;2023-07-13T04:55:37;15.40;99.90
2523;DHT22;1272;53.332;9.860;2023-07-13T04:58:03;15.40;99.90
2523;DHT22;1272;53.332;9.860;2023-07-13T05:00:29;15.60;99.90
2523;DHT22;1272;53.332;9.860;2023-07-13T05:02:56;15.50;99.90
2523;DHT22;1272;53.332;9.860;2023-07-13T05:05:25;15.60;99.90
2523;DHT22;1272;53.332;9.860;2023-07-13T05:07:52;15.60;99.90
2523;DHT22;1272;53.332;9.860;2023-07-13T05:10:18;15.70;99.90
2523;DHT22;1272;53.332;9.860;2023-07-13T05:12:44;15.70;99.90
2523;DHT22;1272;53.332;9.860;2023-07-13T05:15:10;15.80;99.90
2523;DHT22;1272;53.332;9.860;2023-07-13T05:17:36;15.80;99.90
2523;DHT22;1272;53.332;9.860;2023-07-13T05:20:01;15.90;99.90
2523;DHT22;1272;53.332;9.860;2023-07-13T05:22:27;15.90;99.90
2523;DHT22;1272;53.332;9.860;2023-07-13T05:24:53;16.00;99.90
2523;DHT22;1272;53.332;9.860;2023-07-13T05:27:19;16.00;99.90
2523;DHT22;1272;53.332;9.860;2023-07-13T05:29:44;16.10;99.90
2523;DHT22;1272;53.332;9.860;2023-07-13T05:32:10;16.10;99.90
2523;DHT22;1272;53.332;9.860;2023-07-13T05:34:36;16.20;99.90
2523;DHT22;1272;53.332;9.860;2023-07-13T05:37:01;16.20;99.90
2523;DHT22;1272;53.332;9.860;2023-07-13T05:39:27;16.20;99.90
2523;DHT22;1272;53.332;9.860;2023-07-13T05:41:53;16.20;99.90
2523;DHT22;1272;53.332;9.860;2023-07-13T05:44:19;16.20;99.90
2523;DHT22;1272;53.332;9.860;2023-07-13T05:46:45;16.20;99.90
2523;DHT22;1272;53.332;9.860;2023-07-13T05:49:10;16.10;99.90
2523;DHT22;1272;53.332;9.860;2023-07-13T05:51:36;16.20;99.90
2523;DHT22;1272;53.332;9.860;2023-07-13T05:54:02;16.20;99.90
2523;DHT22;1272;53.332;9.860;2023-07-13T05:56:28;16.20;99.90
2523;DHT22;1272;53.332;9.860;2023-07-13T05:58:54;16.30;99.90
2523;DHT22;1272;53.332;9.860;2023-07-13T06:01:20;16.40;99.90
2523;DHT22;1272;53.332;9.860;2023-07-13T06:03:46;16.40;99.90
2523;DHT22;1272;53.332;9.860;2023-07-13T06:06:13;16.50;99.90
2523;DHT22;1272;53.332;9.860;2023-07-13T06:08:38;16.50;99.90
2523;DHT22;1272;53.332;9.860;2023-07-13T06:13:35;16.70;99.90
2523;DHT22;1272;53.332;9.860;2023-07-13T06:16:02;16.80;99.90
2523;DHT22;1272;53.332;9.860;2023-07-13T06:18:31;16.80;99.90
2523;DHT22;1272;53.332;9.860;2023-07-13T06:20:57;16.70;99.90
2523;DHT22;1272;53.332;9.860;2023-07-13T06:23:23;16.80;99.90
2523;DHT22;1272;53.332;9.860;2023-07-13T06:25:49;16.90;99.90
2523;DHT22;1272;53.332;9.860;2023-07-13T06:28:14;16.90;99.90
2523;DHT22;1272;53.332;9.860;2023-07-13T06:30:40;17.00;99.90
2523;DHT22;1272;53.332;9.860;2023-07-13T06:33:06;17.00;99.90
2523;DHT22;1272;53.332;9.860;2023-07-13T06:35:32;17.10;99.90
2523;DHT22;1272;53.332;9.860;2023-07-13T06:37:57;17.30;99.90
2523;DHT22;1272;53.332;9.860;2023-07-13T06:40:23;17.30;99.90
2523;DHT22;1272;53.332;9.860;2023-07-13T06:42:49;17.30;99.90
2523;DHT22;1272;53.332;9.860;2023-07-13T06:45:14;17.30;99.90
2523;DHT22;1272;53.332;9.860;2023-07-13T06:47:40;17.30;99.90
2523;DHT22;1272;53.332;9.860;2023-07-13T06:50:07;17.40;99.90
2523;DHT22;1272;53.332;9.860;2023-07-13T06:52:33;17.40;99.90
2523;DHT22;1272;53.332;9.860;2023-07-13T06:54:58;17.40;99.90
2523;DHT22;1272;53.332;9.860;2023-07-13T06:57:24;17.50;99.90
2523;DHT22;1272;53.332;9.860;2023-07-13T06:59:50;17.50;99.90
2523;DHT22;1272;53.332;9.860;2023-07-13T07:02:15;17.60;99.90
2523;DHT22;1272;53.332;9.860;2023-07-13T07:04:41;17.60;99.90
2523;DHT22;1272;53.332;9.860;2023-07-13T07:07:07;17.70;99.90
2523;DHT22;1272;53.332;9.860;2023-07-13T07:09:32;17.70;99.90
2523;DHT22;1272;53.332;9.860;2023-07-13T07:11:58;17.70;99.90
2523;DHT22;1272;53.332;9.860;2023-07-13T07:14:24;17.80;99.90
2523;DHT22;1272;53.332;9.860;2023-07-13T07:16:50;17.70;99.90
2523;DHT22;1272;53.332;9.860;2023-07-13T07:19:16;17.70;99.90
2523;DHT22;1272;53.332;9.860;2023-07-13T07:21:42;17.70;99.90
2523;DHT22;1272;53.332;9.860;2023-07-13T07:24:07;17.80;99.90
2523;DHT22;1272;53.332;9.860;2023-07-13T07:26:34;17.80;99.90
2523;DHT22;1272;53.332;9.860;2023-07-13T07:29:00;17.80;99.90
2523;DHT22;1272;53.332;9.860;2023-07-13T07:31:25;17.90;99.90
2523;DHT22;1272;53.332;9.860;2023-07-13T07:33:51;17.90;99.90
2523;DHT22;1272;53.332;9.860;2023-07-13T07:36:17;18.00;99.90
2523;DHT22;1272;53.332;9.860;2023-07-13T07:38:43;18.10;99.90
2523;DHT22;1272;53.332;9.860;2023-07-13T07:41:09;18.20;99.90
2523;DHT22;1272;53.332;9.860;2023-07-13T07:43:35;18.20;99.90
2523;DHT22;1272;53.332;9.860;2023-07-13T07:46:01;18.30;50.60
2523;DHT22;1272;53.332;9.860;2023-07-13T07:48:27;18.30;99.90
2523;DHT22;1272;53.332;9.860;2023-07-13T07:50:52;18.40;83.50
2523;DHT22;1272;53.332;9.860;2023-07-13T07:53:18;18.40;99.90
2523;DHT22;1272;53.332;9.860;2023-07-13T07:55:44;18.40;71.60
2523;DHT22;1272;53.332;9.860;2023-07-13T07:58:10;18.40;93.10
2523;DHT22;1272;53.332;9.860;2023-07-13T08:00:36;18.40;35.10
2523;DHT22;1272;53.332;9.860;2023-07-13T08:03:02;18.40;84.20
2523;DHT22;1272;53.332;9.860;2023-07-13T08:05:28;18.40;96.60
2523;DHT22;1272;53.332;9.860;2023-07-13T08:07:55;18.40;50.60
2523;DHT22;1272;53.332;9.860;2023-07-13T08:10:20;18.50;8.50
2523;DHT22;1272;53.332;9.860;2023-07-13T08:12:46;18.50;1.00
2523;DHT22;1272;53.332;9.860;2023-07-13T08:15:15;18.60;1.00
2523;DHT22;1272;53.332;9.860;2023-07-13T08:17:41;18.70;1.00
2523;DHT22;1272;53.332;9.860;2023-07-13T08:20:08;18.60;1.00
2523;DHT22;1272;53.332;9.860;2023-07-13T08:22:34;18.60;1.00
2523;DHT22;1272;53.332;9.860;2023-07-13T08:25:01;18.70;1.00
2523;DHT22;1272;53.332;9.860;2023-07-13T08:27:28;18.70;1.00
2523;DHT22;1272;53.332;9.860;2023-07-13T08:29:54;18.90;1.00
2523;DHT22;1272;53.332;9.860;2023-07-13T08:32:21;19.00;1.00
2523;DHT22;1272;53.332;9.860;2023-07-13T08:34:47;19.00;99.90
2523;DHT22;1272;53.332;9.860;2023-07-13T08:37:14;19.10;99.90
2523;DHT22;1272;53.332;9.860;2023-07-13T08:39:40;19.20;99.90
2523;DHT22;1272;53.332;9.860;2023-07-13T08:47:23;19.40;99.90
2523;DHT22;1272;53.332;9.860;2023-07-13T08:49:50;19.50;88.50
2523;DHT22;1272;53.332;9.860;2023-07-13T08:52:32;19.50;57.80
2523;DHT22;1272;53.332;9.860;2023-07-13T08:55:12;19.40;1.00
2523;DHT22;1272;53.332;9.860;2023-07-13T08:57:41;19.40;1.00
2523;DHT22;1272;53.332;9.860;2023-07-13T09:00:12;19.50;23.00
2523;DHT22;1272;53.332;9.860;2023-07-13T09:03:20;19.60;1.00
2523;DHT22;1272;53.332;9.860;2023-07-13T09:05:42;19.50;1.00
2523;DHT22;1272;53.332;9.860;2023-07-13T09:14:01;19.50;1.00
2523;DHT22;1272;53.332;9.860;2023-07-13T09:16:33;19.50;1.00
2523;DHT22;1272;53.332;9.860;2023-07-13T09:19:05;19.50;26.00
2523;DHT22;1272;53.332;9.860;2023-07-13T09:21:36;19.70;1.00
2523;DHT22;1272;53.332;9.860;2023-07-13T09:24:38;19.80;1.00
2523;DHT22;1272;53.332;9.860;2023-07-13T09:27:29;20.00;99.90
2523;DHT22;1272;53.332;9.860;2023-07-13T09:32:45;20.70;1.00
2523;DHT22;1272;53.332;9.860;2023-07-13T09:35:16;20.90;1.00
2523;DHT22;1272;53.332;9.860;2023-07-13T09:37:45;20.90;99.90
2523;DHT22;1272;53.332;9.860;2023-07-13T09:40:17;20.80;1.00
2523;DHT22;1272;53.332;9.860;2023-07-13T09:42:45;20.60;1.00
2523;DHT22;1272;53.332;9.860;2023-07-13T09:45:26;20.50;1.00
2523;DHT22;1272;53.332;9.860;2023-07-13T09:48:19;20.40;4.40
2523;DHT22;1272;53.332;9.860;2023-07-13T09:50:45;20.60;3.90
2523;DHT22;1272;53.332;9.860;2023-07-13T09:53:15;20.50;1.00
2523;DHT22;1272;53.332;9.860;2023-07-13T09:55:43;20.60;44.70
2523;DHT22;1272;53.332;9.860;2023-07-13T10:00:39;21.10;1.00
2523;DHT22;1272;53.332;9.860;2023-07-13T10:03:22;21.30;1.00
2523;DHT22;1272;53.332;9.860;2023-07-13T10:05:50;21.30;99.90
2523;DHT22;1272;53.332;9.860;2023-07-13T10:08:25;21.40;99.90
2523;DHT22;1272;53.332;9.860;2023-07-13T10:11:28;21.20;99.90
2523;DHT22;1272;53.332;9.860;2023-07-13T10:14:12;21.20;99.90
2523;DHT22;1272;53.332;9.860;2023-07-13T10:16:41;21.10;99.90
2523;DHT22;1272;53.332;9.860;2023-07-13T10:19:23;20.90;99.90
2523;DHT22;1272;53.332;9.860;2023-07-13T10:21:56;20.60;99.90
2523;DHT22;1272;53.332;9.860;2023-07-13T10:24:33;20.70;99.90
2523;DHT22;1272;53.332;9.860;2023-07-13T10:29:37;21.50;99.90
2523;DHT22;1272;53.332;9.860;2023-07-13T10:32:09;21.70;99.90
2523;DHT22;1272;53.332;9.860;2023-07-13T10:34:36;22.00;99.90
2523;DHT22;1272;53.332;9.860;2023-07-13T10:37:02;22.20;78.20
2523;DHT22;1272;53.332;9.860;2023-07-13T10:39:30;22.20;99.90
2523;DHT22;1272;53.332;9.860;2023-07-13T10:42:02;22.40;60.10
2523;DHT22;1272;53.332;9.860;2023-07-13T10:44:31;22.80;99.90
2523;DHT22;1272;53.332;9.860;2023-07-13T10:46:59;23.10;62.40
2523;DHT22;1272;53.332;9.860;2023-07-13T10:49:28;23.20;29.20
2523;DHT22;1272;53.332;9.860;2023-07-13T10:51:54;23.20;21.40
2523;DHT22;1272;53.332;9.860;2023-07-13T10:54:26;23.40;1.00
2523;DHT22;1272;53.332;9.860;2023-07-13T10:59:38;22.90;1.00
2523;DHT22;1272;53.332;9.860;2023-07-13T11:04:44;23.30;1.00
2523;DHT22;1272;53.332;9.860;2023-07-13T11:07:28;23.40;1.00
2523;DHT22;1272;53.332;9.860;2023-07-13T11:09:59;23.70;1.00
2523;DHT22;1272;53.332;9.860;2023-07-13T11:12:52;23.90;1.00
2523;DHT22;1272;53.332;9.860;2023-07-13T11:15:52;24.10;1.00
2523;DHT22;1272;53.332;9.860;2023-07-13T11:18:23;24.10;1.00
2523;DHT22;1272;53.332;9.860;2023-07-13T11:20:50;24.10;1.00
2523;DHT22;1272;53.332;9.860;2023-07-13T11:25:43;23.60;1.00
2523;DHT22;1272;53.332;9.860;2023-07-13T11:30:50;23.30;1.00
2523;DHT22;1272;53.332;9.860;2023-07-13T11:33:31;23.50;1.00
2523;DHT22;1272;53.332;9.860;2023-07-13T11:36:19;23.50;1.00
2523;DHT22;1272;53.332;9.860;2023-07-13T11:39:00;23.40;1.00
2523;DHT22;1272;53.332;9.860;2023-07-13T11:41:42;23.40;1.00
2523;DHT22;1272;53.332;9.860;2023-07-13T11:44:14;23.40;1.00
2523;DHT22;1272;53.332;9.860;2023-07-13T11:46:45;23.70;1.00
2523;DHT22;1272;53.332;9.860;2023-07-13T11:49:16;23.90;1.00
2523;DHT22;1272;53.332;9.860;2023-07-13T11:51:42;24.30;1.00
2523;DHT22;1272;53.332;9.860;2023-07-13T11:54:43;24.50;1.00
2523;DHT22;1272;53.332;9.860;2023-07-13T12:00:11;24.20;1.00
2523;DHT22;1272;53.332;9.860;2023-07-13T12:02:40;23.90;1.00
2523;DHT22;1272;53.332;9.860;2023-07-13T12:05:11;23.60;1.00
2523;DHT22;1272;53.332;9.860;2023-07-13T12:07:38;23.20;1.00
2523;DHT22;1272;53.332;9.860;2023-07-13T12:10:21;23.10;1.00
2523;DHT22;1272;53.332;9.860;2023-07-13T12:12:50;22.80;1.00
2523;DHT22;1272;53.332;9.860;2023-07-13T12:15:17;22.40;1.00
2523;DHT22;1272;53.332;9.860;2023-07-13T12:17:42;22.30;47.00
2523;DHT22;1272;53.332;9.860;2023-07-13T12:20:27;21.40;19.00
2523;DHT22;1272;53.332;9.860;2023-07-13T12:22:54;20.70;1.00
2523;DHT22;1272;53.332;9.860;2023-07-13T12:25:21;20.20;89.90
2523;DHT22;1272;53.332;9.860;2023-07-13T12:27:48;19.80;99.90
2523;DHT22;1272;53.332;9.860;2023-07-13T12:30:25;19.40;96.10
2523;DHT22;1272;53.332;9.860;2023-07-13T12:32:56;19.10;1.00
2523;DHT22;1272;53.332;9.860;2023-07-13T12:35:23;18.90;99.90
2523;DHT22;1272;53.332;9.860;2023-07-13T12:37:51;18.80;1.00
2523;DHT22;1272;53.332;9.860;2023-07-13T12:40:21;18.70;1.00
2523;DHT22;1272;53.332;9.860;2023-07-13T12:42:52;18.70;1.00
2523;DHT22;1272;53.332;9.860;2023-07-13T12:45:21;18.70;1.00
2523;DHT22;1272;53.332;9.860;2023-07-13T12:47:50;18.80;99.90
2523;DHT22;1272;53.332;9.860;2023-07-13T12:50:23;18.80;99.90
2523;DHT22;1272;53.332;9.860;2023-07-13T12:52:53;18.80;1.00
2523;DHT22;1272;53.332;9.860;2023-07-13T12:55:21;18.80;99.90
2523;DHT22;1272;53.332;9.860;2023-07-13T12:57:56;18.70;36.40
2523;DHT22;1272;53.332;9.860;2023-07-13T13:00:36;18.60;99.90
2523;DHT22;1272;53.332;9.860;2023-07-13T13:03:31;18.60;99.90
2523;DHT22;1272;53.332;9.860;2023-07-13T13:06:03;18.90;1.00
2523;DHT22;1272;53.332;9.860;2023-07-13T13:08:34;19.10;99.90
2523;DHT22;1272;53.332;9.860;2023-07-13T13:11:03;19.40;99.90
2523;DHT22;1272;53.332;9.860;2023-07-13T13:13:30;19.60;99.90
2523;DHT22;1272;53.332;9.860;2023-07-13T13:15:55;19.80;99.90
2523;DHT22;1272;53.332;9.860;2023-07-13T13:18:23;19.90;99.90
2523;DHT22;1272;53.332;9.860;2023-07-13T13:20:52;19.90;1.00
2523;DHT22;1272;53.332;9.860;2023-07-13T13:23:19;19.90;1.00
2523;DHT22;1272;53.332;9.860;2023-07-13T13:25:49;19.80;99.90
2523;DHT22;1272;53.332;9.860;2023-07-13T13:28:18;19.70;99.90
2523;DHT22;1272;53.332;9.860;2023-07-13T13:30:46;19.70;18.90
2523;DHT22;1272;53.332;9.860;2023-07-13T13:33:15;19.60;23.00
2523;DHT22;1272;53.332;9.860;2023-07-13T13:35:42;19.50;1.00
2523;DHT22;1272;53.332;9.860;2023-07-13T13:38:23;19.40;1.00
2523;DHT22;1272;53.332;9.860;2023-07-13T13:40:50;19.30;1.00
2523;DHT22;1272;53.332;9.860;2023-07-13T13:43:17;19.20;99.90
2523;DHT22;1272;53.332;9.860;2023-07-13T13:45:44;19.20;27.20
2523;DHT22;1272;53.332;9.860;2023-07-13T13:48:23;19.10;99.90
2523;DHT22;1272;53.332;9.860;2023-07-13T13:50:56;19.00;99.90
2523;DHT22;1272;53.332;9.860;2023-07-13T13:53:22;18.90;1.00
2523;DHT22;1272;53.332;9.860;2023-07-13T13:55:49;18.80;1.00
2523;DHT22;1272;53.332;9.860;2023-07-13T13:58:15;18.80;99.90
2523;DHT22;1272;53.332;9.860;2023-07-13T14:00:41;18.80;1.00
2523;DHT22;1272;53.332;9.860;2023-07-13T14:03:28;18.90;1.00
2523;DHT22;1272;53.332;9.860;2023-07-13T14:05:54;18.80;1.00
2523;DHT22;1272;53.332;9.860;2023-07-13T14:08:22;18.90;1.00
2523;DHT22;1272;53.332;9.860;2023-07-13T14:10:51;19.00;1.00
2523;DHT22;1272;53.332;9.860;2023-07-13T14:13:25;19.10;99.90
2523;DHT22;1272;53.332;9.860;2023-07-13T14:15:52;19.20;99.90
2523;DHT22;1272;53.332;9.860;2023-07-13T14:18:18;19.30;99.90
2523;DHT22;1272;53.332;9.860;2023-07-13T14:20:48;19.30;99.90
2523;DHT22;1272;53.332;9.860;2023-07-13T14:23:16;19.40;1.00
2523;DHT22;1272;53.332;9.860;2023-07-13T14:25:44;19.50;99.90
2523;DHT22;1272;53.332;9.860;2023-07-13T14:28:24;19.50;1.00
2523;DHT22;1272;53.332;9.860;2023-07-13T14:30:50;19.50;15.60
2523;DHT22;1272;53.332;9.860;2023-07-13T14:33:16;19.60;99.90
2523;DHT22;1272;53.332;9.860;2023-07-13T14:35:42;19.60;1.00
2523;DHT22;1272;53.332;9.860;2023-07-13T14:38:15;19.60;99.90
2523;DHT22;1272;53.332;9.860;2023-07-13T14:40:41;19.60;99.90
2523;DHT22;1272;53.332;9.860;2023-07-13T14:43:14;19.50;1.00
2523;DHT22;1272;53.332;9.860;2023-07-13T14:45:43;19.50;1.00
2523;DHT22;1272;53.332;9.860;2023-07-13T14:48:21;19.50;1.00
2523;DHT22;1272;53.332;9.860;2023-07-13T14:50:55;19.50;99.90
2523;DHT22;1272;53.332;9.860;2023-07-13T14:53:22;19.50;1.00
2523;DHT22;1272;53.332;9.860;2023-07-13T14:55:47;19.40;1.00
2523;DHT22;1272;53.332;9.860;2023-07-13T14:58:13;19.40;99.90
2523;DHT22;1272;53.332;9.860;2023-07-13T15:00:40;19.40;99.90
2523;DHT22;1272;53.332;9.860;2023-07-13T15:03:08;19.40;99.90
2523;DHT22;1272;53.332;9.860;2023-07-13T15:05:40;19.40;1.00
2523;DHT22;1272;53.332;9.860;2023-07-13T15:08:05;19.40;1.00
2523;DHT22;1272;53.332;9.860;2023-07-13T15:10:33;19.40;99.90
2523;DHT22;1272;53.332;9.860;2023-07-13T15:13:01;19.40;99.90
2523;DHT22;1272;53.332;9.860;2023-07-13T15:15:38;19.70;1.00
2523;DHT22;1272;53.332;9.860;2023-07-13T15:18:05;20.20;1.00
2523;DHT22;1272;53.332;9.860;2023-07-13T15:20:34;20.80;99.90
2523;DHT22;1272;53.332;9.860;2023-07-13T15:23:02;21.40;99.90
2523;DHT22;1272;53.332;9.860;2023-07-13T15:25:30;21.90;1.00
2523;DHT22;1272;53.332;9.860;2023-07-13T15:27:57;22.20;1.00
2523;DHT22;1272;53.332;9.860;2023-07-13T15:30:27;22.40;99.90
2523;DHT22;1272;53.332;9.860;2023-07-13T15:32:53;22.60;99.90
2523;DHT22;1272;53.332;9.860;2023-07-13T15:35:24;22.70;99.90
2523;DHT22;1272;53.332;9.860;2023-07-13T15:37:50;22.80;99.90
2523;DHT22;1272;53.332;9.860;2023-07-13T15:40:16;22.70;99.90
2523;DHT22;1272;53.332;9.860;2023-07-13T15:42:43;22.60;99.90
2523;DHT22;1272;53.332;9.860;2023-07-13T15:45:23;22.50;99.90
2523;DHT22;1272;53.332;9.860;2023-07-13T15:47:50;22.40;99.90
2523;DHT22;1272;53.332;9.860;2023-07-13T15:50:22;22.30;99.90
2523;DHT22;1272;53.332;9.860;2023-07-13T15:52:51;22.10;1.00
2523;DHT22;1272;53.332;9.860;2023-07-13T15:55:17;21.90;1.00
2523;DHT22;1272;53.332;9.860;2023-07-13T15:57:52;21.80;99.90
2523;DHT22;1272;53.332;9.860;2023-07-13T16:00:24;21.60;99.90
2523;DHT22;1272;53.332;9.860;2023-07-13T16:02:51;21.60;99.90
2523;DHT22;1272;53.332;9.860;2023-07-13T16:05:18;21.50;1.00
2523;DHT22;1272;53.332;9.860;2023-07-13T16:07:46;21.40;1.00
2523;DHT22;1272;53.332;9.860;2023-07-13T16:10:15;21.30;99.90
2523;DHT22;1272;53.332;9.860;2023-07-13T16:12:41;21.10;99.90
2523;DHT22;1272;53.332;9.860;2023-07-13T16:15:16;20.90;99.90
2523;DHT22;1272;53.332;9.860;2023-07-13T16:17:45;20.80;1.00
2523;DHT22;1272;53.332;9.860;2023-07-13T16:20:12;20.70;99.90
2523;DHT22;1272;53.332;9.860;2023-07-13T16:22:39;20.50;99.90
2523;DHT22;1272;53.332;9.860;2023-07-13T16:25:20;20.50;99.90
2523;DHT22;1272;53.332;9.860;2023-07-13T16:27:47;20.40;1.00
2523;DHT22;1272;53.332;9.860;2023-07-13T16:30:24;20.40;1.00
2523;DHT22;1272;53.332;9.860;2023-07-13T16:32:52;20.40;99.90
2523;DHT22;1272;53.332;9.860;2023-07-13T16:35:26;20.50;99.90
2523;DHT22;1272;53.332;9.860;2023-07-13T16:37:53;20.50;99.90
2523;DHT22;1272;53.332;9.860;2023-07-13T16:40:24;20.60;1.00
2523;DHT22;1272;53.332;9.860;2023-07-13T16:42:52;20.70;1.00
2523;DHT22;1272;53.332;9.860;2023-07-13T16:45:24;20.90;1.00
2523;DHT22;1272;53.332;9.860;2023-07-13T16:47:54;20.90;1.00
2523;DHT22;1272;53.332;9.860;2023-07-13T16:50:22;20.80;1.00
2523;DHT22;1272;53.332;9.860;2023-07-13T16:52:49;20.60;1.00
2523;DHT22;1272;53.332;9.860;2023-07-13T16:55:18;20.60;1.00
2523;DHT22;1272;53.332;9.860;2023-07-13T16:57:54;20.50;1.00